createdAt,value
2022-11-09T00:00:50.756Z,14.54
2022-11-09T00:01:50.754Z,14.54
2022-11-09T00:02:50.711Z,14.53
2022-11-09T00:03:50.718Z,14.52
2022-11-09T00:04:50.694Z,14.53
2022-11-09T00:05:50.735Z,14.52
2022-11-09T00:06:50.700Z,14.53
2022-11-09T00:07:50.918Z,14.54
2022-11-09T00:08:50.631Z,14.53
2022-11-09T00:09:50.671Z,14.54
2022-11-09T00:10:50.621Z,14.54
2022-11-09T00:11:50.600Z,14.54
2022-11-09T00:12:50.595Z,14.54
2022-11-09T00:13:50.561Z,14.56
2022-11-09T00:14:50.552Z,14.54
2022-11-09T00:15:50.605Z,14.56
2022-11-09T00:16:50.818Z,14.54
2022-11-09T00:17:50.510Z,14.52
2022-11-09T00:18:50.519Z,14.52
2022-11-09T00:19:50.521Z,14.52
2022-11-09T00:20:50.503Z,14.49
2022-11-09T00:21:50.475Z,14.52
2022-11-09T00:22:50.454Z,14.48
2022-11-09T00:23:50.559Z,14.52
2022-11-09T00:24:50.421Z,14.52
2022-11-09T00:25:50.554Z,14.52
2022-11-09T00:26:50.399Z,14.49
2022-11-09T00:27:50.411Z,14.49
2022-11-09T00:28:50.392Z,14.52
2022-11-09T00:29:50.372Z,14.49
2022-11-09T00:30:50.350Z,14.49
2022-11-09T00:31:50.346Z,14.49
2022-11-09T00:32:50.325Z,14.46
2022-11-09T00:33:50.328Z,14.46
2022-11-09T00:34:50.297Z,14.46
2022-11-09T00:35:50.287Z,14.45
2022-11-09T00:36:50.288Z,14.44
2022-11-09T00:37:50.269Z,14.44
2022-11-09T00:38:50.264Z,14.42
2022-11-09T00:39:50.230Z,14.44
2022-11-09T00:40:50.233Z,14.41
2022-11-09T00:41:50.225Z,14.39
2022-11-09T00:42:50.215Z,14.39
2022-11-09T00:43:50.176Z,14.38
2022-11-09T00:44:50.302Z,14.36
2022-11-09T00:45:50.157Z,14.35
2022-11-09T00:46:50.151Z,14.34
2022-11-09T00:47:50.142Z,14.31
2022-11-09T00:48:50.124Z,14.34
2022-11-09T00:49:50.104Z,14.31
2022-11-09T00:50:50.111Z,14.31
2022-11-09T00:51:50.108Z,14.30
2022-11-09T00:52:50.069Z,14.30
2022-11-09T00:53:50.050Z,14.30
2022-11-09T00:54:50.040Z,14.29
2022-11-09T00:55:50.039Z,14.26
2022-11-09T00:56:50.008Z,14.27
2022-11-09T00:57:50.009Z,14.26
2022-11-09T00:58:50.104Z,14.26
2022-11-09T00:59:50.014Z,14.24
2022-11-09T01:00:50.062Z,14.21
2022-11-09T01:01:49.946Z,14.20
2022-11-09T01:02:49.946Z,14.20
2022-11-09T01:03:49.939Z,14.19
2022-11-09T01:04:49.901Z,14.19
2022-11-09T01:05:49.906Z,14.16
2022-11-09T01:06:49.908Z,14.13
2022-11-09T01:07:49.868Z,14.13
2022-11-09T01:08:49.876Z,14.13
2022-11-09T01:09:49.856Z,14.11
2022-11-09T01:10:49.884Z,14.09
2022-11-09T01:11:49.883Z,14.08
2022-11-09T01:12:49.842Z,14.08
2022-11-09T01:13:49.783Z,14.06
2022-11-09T01:14:49.791Z,14.05
2022-11-09T01:15:49.775Z,14.05
2022-11-09T01:16:55.417Z,14.04
2022-11-09T01:17:53.122Z,14.04
2022-11-09T01:18:51.023Z,14.04
2022-11-09T01:19:49.705Z,14.05
2022-11-09T01:20:49.705Z,14.02
2022-11-09T01:21:49.684Z,14.04
2022-11-09T01:22:49.694Z,14.02
2022-11-09T01:23:49.676Z,14.04
2022-11-09T01:24:49.644Z,14.04
2022-11-09T01:25:49.682Z,14.04
2022-11-09T01:26:49.646Z,14.04
2022-11-09T01:27:49.645Z,14.04
2022-11-09T01:28:49.602Z,14.01
2022-11-09T01:29:49.574Z,14.04
2022-11-09T01:30:49.587Z,14.02
2022-11-09T01:31:49.587Z,14.01
2022-11-09T01:32:49.557Z,14.04
2022-11-09T01:33:49.557Z,14.02
2022-11-09T01:34:49.536Z,14.01
2022-11-09T01:35:49.503Z,14.02
2022-11-09T01:36:49.515Z,14.02
2022-11-09T01:37:49.504Z,14.02
2022-11-09T01:38:49.475Z,14.01
2022-11-09T01:39:49.446Z,14.02
2022-11-09T01:40:49.458Z,14.04
2022-11-09T01:41:49.442Z,14.02
2022-11-09T01:42:49.418Z,14.04
2022-11-09T01:43:49.400Z,14.04
2022-11-09T01:44:49.416Z,14.04
2022-11-09T01:45:49.384Z,14.04
2022-11-09T01:46:49.417Z,14.05
2022-11-09T01:47:56.916Z,14.04
2022-11-09T01:48:49.322Z,14.02
2022-11-09T01:49:49.331Z,14.04
2022-11-09T01:50:49.322Z,14.01
2022-11-09T01:51:49.321Z,14.01
2022-11-09T01:52:49.302Z,14.01
2022-11-09T01:53:49.280Z,14.01
2022-11-09T01:54:49.242Z,14.02
2022-11-09T01:55:49.270Z,14.01
2022-11-09T01:56:49.241Z,14.04
2022-11-09T01:57:49.232Z,14.06
2022-11-09T01:58:49.216Z,14.08
2022-11-09T01:59:49.189Z,14.11
2022-11-09T02:00:49.296Z,14.12
2022-11-09T02:01:49.272Z,14.12
2022-11-09T02:02:49.166Z,14.13
2022-11-09T02:03:49.155Z,14.13
2022-11-09T02:04:49.128Z,14.12
2022-11-09T02:05:49.123Z,14.13
2022-11-09T02:06:49.165Z,14.16
2022-11-09T02:07:49.092Z,14.16
2022-11-09T02:08:49.082Z,14.17
2022-11-09T02:09:49.060Z,14.16
2022-11-09T02:10:49.056Z,14.16
2022-11-09T02:11:49.052Z,14.13
2022-11-09T02:12:49.021Z,14.13
2022-11-09T02:13:49.032Z,14.13
2022-11-09T02:14:49.002Z,14.12
2022-11-09T02:15:49.002Z,14.12
2022-11-09T02:16:49.011Z,14.11
2022-11-09T02:17:48.991Z,14.09
2022-11-09T02:18:48.971Z,14.08
2022-11-09T02:19:48.959Z,14.06
2022-11-09T02:20:48.931Z,14.08
2022-11-09T02:21:48.950Z,14.06
2022-11-09T02:22:48.911Z,14.06
2022-11-09T02:23:48.910Z,14.09
2022-11-09T02:24:51.788Z,14.09
2022-11-09T02:25:49.860Z,14.09
2022-11-09T02:26:48.855Z,14.11
2022-11-09T02:27:48.849Z,14.11
2022-11-09T02:28:48.818Z,14.09
2022-11-09T02:29:48.811Z,14.12
2022-11-09T02:30:48.776Z,14.12
2022-11-09T02:31:48.783Z,14.11
2022-11-09T02:32:48.786Z,14.11
2022-11-09T02:33:48.761Z,14.12
2022-11-09T02:34:48.728Z,14.13
2022-11-09T02:35:48.751Z,14.12
2022-11-09T02:36:48.705Z,14.13
2022-11-09T02:37:48.730Z,14.13
2022-11-09T02:38:48.699Z,14.13
2022-11-09T02:39:48.684Z,14.16
2022-11-09T02:40:48.668Z,14.13
2022-11-09T02:41:48.670Z,14.13
2022-11-09T02:42:48.679Z,14.11
2022-11-09T02:43:48.616Z,14.12
2022-11-09T02:44:48.593Z,14.11
2022-11-09T02:45:48.603Z,14.11
2022-11-09T02:46:48.593Z,14.09
2022-11-09T02:47:48.627Z,14.09
2022-11-09T02:48:48.579Z,14.08
2022-11-09T02:49:48.552Z,14.05
2022-11-09T02:50:48.538Z,14.05
2022-11-09T02:51:48.524Z,14.04
2022-11-09T02:52:48.504Z,14.02
2022-11-09T02:53:48.483Z,14.01
2022-11-09T02:54:48.465Z,14.01
2022-11-09T02:55:48.477Z,13.99
2022-11-09T02:56:48.442Z,13.98
2022-11-09T02:57:48.453Z,13.98
2022-11-09T02:58:48.422Z,13.94
2022-11-09T02:59:48.402Z,13.93
2022-11-09T03:00:48.436Z,13.93
2022-11-09T03:01:48.406Z,13.94
2022-11-09T03:02:48.394Z,13.93
2022-11-09T03:03:48.385Z,13.91
2022-11-09T03:04:48.367Z,13.90
2022-11-09T03:05:48.342Z,13.90
2022-11-09T03:06:48.360Z,13.88
2022-11-09T03:07:48.345Z,13.90
2022-11-09T03:08:48.318Z,13.90
2022-11-09T03:09:48.305Z,13.91
2022-11-09T03:10:48.283Z,13.91
2022-11-09T03:11:48.274Z,13.93
2022-11-09T03:12:48.255Z,13.93
2022-11-09T03:13:48.257Z,13.93
2022-11-09T03:14:48.227Z,13.94
2022-11-09T03:15:48.197Z,13.96
2022-11-09T03:16:50.690Z,13.96
2022-11-09T03:17:48.215Z,13.96
2022-11-09T03:18:48.177Z,13.96
2022-11-09T03:19:48.158Z,13.98
2022-11-09T03:20:48.143Z,13.98
2022-11-09T03:21:48.143Z,13.98
2022-11-09T03:22:48.120Z,13.98
2022-11-09T03:23:48.090Z,13.99
2022-11-09T03:24:48.104Z,13.98
2022-11-09T03:25:48.069Z,13.99
2022-11-09T03:26:48.081Z,13.98
2022-11-09T03:27:48.075Z,14.02
2022-11-09T03:28:48.037Z,14.01
2022-11-09T03:29:48.018Z,14.04
2022-11-09T03:30:47.999Z,14.06
2022-11-09T03:31:48.014Z,14.06
2022-11-09T03:32:50.610Z,14.08
2022-11-09T03:33:47.970Z,14.08
2022-11-09T03:34:47.987Z,14.08
2022-11-09T03:35:47.959Z,14.11
2022-11-09T03:36:47.956Z,14.11
2022-11-09T03:37:47.996Z,14.09
2022-11-09T03:38:47.914Z,14.12
2022-11-09T03:39:47.996Z,14.13
2022-11-09T03:40:47.884Z,14.12
2022-11-09T03:41:47.880Z,14.13
2022-11-09T03:42:47.883Z,14.13
2022-11-09T03:43:47.835Z,14.12
2022-11-09T03:44:47.819Z,14.13
2022-11-09T03:45:47.812Z,14.16
2022-11-09T03:46:47.799Z,14.13
2022-11-09T03:47:47.798Z,14.16
2022-11-09T03:48:47.798Z,14.16
2022-11-09T03:49:47.781Z,14.16
2022-11-09T03:50:47.750Z,14.17
2022-11-09T03:51:47.762Z,14.19
2022-11-09T03:52:47.726Z,14.20
2022-11-09T03:53:47.717Z,14.19
2022-11-09T03:54:47.694Z,14.20
2022-11-09T03:55:47.699Z,14.20
2022-11-09T03:56:47.699Z,14.21
2022-11-09T03:57:47.647Z,14.21
2022-11-09T03:58:47.646Z,14.23
2022-11-09T03:59:47.661Z,14.23
2022-11-09T04:00:47.628Z,14.21
2022-11-09T04:01:47.837Z,14.21
2022-11-09T04:02:47.587Z,14.20
2022-11-09T04:03:47.621Z,14.23
2022-11-09T04:04:47.577Z,14.21
2022-11-09T04:05:47.559Z,14.21
2022-11-09T04:06:47.606Z,14.21
2022-11-09T04:07:47.545Z,14.21
2022-11-09T04:08:51.341Z,14.21
2022-11-09T04:09:47.508Z,14.21
2022-11-09T04:10:47.486Z,14.21
2022-11-09T04:11:47.474Z,14.23
2022-11-09T04:12:47.455Z,14.26
2022-11-09T04:13:47.486Z,14.24
2022-11-09T04:14:47.468Z,14.24
2022-11-09T04:15:47.435Z,14.26
2022-11-09T04:16:47.404Z,14.24
2022-11-09T04:17:47.417Z,14.24
2022-11-09T04:18:47.394Z,14.26
2022-11-09T04:19:47.375Z,14.24
2022-11-09T04:20:47.369Z,14.26
2022-11-09T04:21:47.341Z,14.26
2022-11-09T04:22:47.356Z,14.24
2022-11-09T04:23:47.338Z,14.24
2022-11-09T04:24:47.314Z,14.24
2022-11-09T04:25:47.301Z,14.24
2022-11-09T04:26:47.314Z,14.21
2022-11-09T04:27:47.275Z,14.24
2022-11-09T04:28:47.276Z,14.24
2022-11-09T04:29:47.258Z,14.24
2022-11-09T04:30:47.240Z,14.21
2022-11-09T04:31:47.236Z,14.21
2022-11-09T04:32:47.213Z,14.21
2022-11-09T04:33:47.193Z,14.21
2022-11-09T04:34:47.186Z,14.20
2022-11-09T04:35:47.162Z,14.20
2022-11-09T04:36:47.175Z,14.19
2022-11-09T04:37:47.148Z,14.19
2022-11-09T04:38:47.141Z,14.17
2022-11-09T04:39:47.115Z,14.17
2022-11-09T04:40:47.131Z,14.16
2022-11-09T04:41:47.085Z,14.16
2022-11-09T04:42:47.076Z,14.13
2022-11-09T04:43:47.091Z,14.16
2022-11-09T04:44:47.058Z,14.13
2022-11-09T04:45:47.032Z,14.13
2022-11-09T04:46:47.023Z,14.16
2022-11-09T04:47:47.025Z,14.13
2022-11-09T04:48:47.035Z,14.16
2022-11-09T04:49:47.007Z,14.13
2022-11-09T04:50:46.962Z,14.16
2022-11-09T04:51:46.962Z,14.13
2022-11-09T04:52:46.944Z,14.13
2022-11-09T04:53:46.941Z,14.16
2022-11-09T04:54:46.920Z,14.13
2022-11-09T04:55:46.946Z,14.13
2022-11-09T04:56:46.890Z,14.16
2022-11-09T04:57:46.885Z,14.16
2022-11-09T04:58:46.894Z,14.17
2022-11-09T04:59:46.866Z,14.17
2022-11-09T05:00:46.853Z,14.17
2022-11-09T05:01:46.843Z,14.19
2022-11-09T05:02:46.823Z,14.17
2022-11-09T05:03:46.935Z,14.19
2022-11-09T05:04:46.808Z,14.19
2022-11-09T05:05:48.587Z,14.19
2022-11-09T05:06:46.870Z,14.19
2022-11-09T05:07:46.742Z,14.19
2022-11-09T05:08:46.779Z,14.17
2022-11-09T05:09:46.725Z,14.19
2022-11-09T05:10:46.733Z,14.19
2022-11-09T05:11:46.696Z,14.19
2022-11-09T05:12:46.679Z,14.19
2022-11-09T05:13:46.713Z,14.19
2022-11-09T05:14:46.680Z,14.17
2022-11-09T05:15:46.661Z,14.16
2022-11-09T05:16:46.628Z,14.12
2022-11-09T05:17:46.640Z,14.11
2022-11-09T05:18:46.630Z,14.06
2022-11-09T05:19:46.588Z,14.05
2022-11-09T05:20:46.603Z,14.04
2022-11-09T05:21:46.569Z,14.04
2022-11-09T05:22:46.566Z,14.02
2022-11-09T05:23:46.563Z,14.01
2022-11-09T05:24:46.540Z,13.99
2022-11-09T05:25:46.521Z,13.98
2022-11-09T05:26:46.534Z,13.99
2022-11-09T05:27:46.502Z,13.98
2022-11-09T05:28:46.500Z,13.96
2022-11-09T05:29:46.478Z,13.94
2022-11-09T05:30:46.448Z,13.93
2022-11-09T05:31:51.848Z,13.91
2022-11-09T05:32:47.429Z,13.91
2022-11-09T05:33:46.439Z,13.91
2022-11-09T05:34:46.405Z,13.88
2022-11-09T05:35:46.401Z,13.88
2022-11-09T05:36:46.387Z,13.87
2022-11-09T05:37:46.353Z,13.83
2022-11-09T05:38:46.345Z,13.83
2022-11-09T05:39:46.377Z,13.80
2022-11-09T05:40:46.330Z,13.80
2022-11-09T05:41:46.313Z,13.79
2022-11-09T05:42:46.323Z,13.76
2022-11-09T05:43:46.290Z,13.76
2022-11-09T05:44:46.312Z,13.75
2022-11-09T05:45:46.265Z,13.75
2022-11-09T05:46:46.253Z,13.73
2022-11-09T05:47:46.253Z,13.73
2022-11-09T05:48:46.216Z,13.75
2022-11-09T05:49:46.243Z,13.73
2022-11-09T05:50:46.193Z,13.73
2022-11-09T05:51:46.178Z,13.72
2022-11-09T05:52:46.173Z,13.73
2022-11-09T05:53:47.139Z,13.73
2022-11-09T05:54:46.144Z,13.73
2022-11-09T05:55:46.122Z,13.72
2022-11-09T05:56:46.146Z,13.71
2022-11-09T05:57:46.093Z,13.68
2022-11-09T05:58:46.118Z,13.69
2022-11-09T05:59:46.097Z,13.68
2022-11-09T06:00:46.055Z,13.66
2022-11-09T06:01:46.130Z,13.65
2022-11-09T06:02:46.051Z,13.62
2022-11-09T06:03:46.039Z,13.59
2022-11-09T06:04:46.024Z,13.54
2022-11-09T06:05:46.003Z,13.50
2022-11-09T06:06:46.020Z,13.46
2022-11-09T06:07:45.976Z,13.39
2022-11-09T06:08:45.963Z,13.36
2022-11-09T06:09:45.966Z,13.29
2022-11-09T06:10:45.932Z,13.25
2022-11-09T06:11:45.912Z,13.21
2022-11-09T06:12:45.915Z,13.17
2022-11-09T06:13:45.933Z,13.14
2022-11-09T06:14:45.900Z,13.14
2022-11-09T06:15:45.886Z,13.13
2022-11-09T06:16:45.878Z,13.12
2022-11-09T06:17:45.856Z,13.09
2022-11-09T06:18:45.852Z,13.07
2022-11-09T06:19:45.824Z,13.07
2022-11-09T06:20:45.828Z,13.03
2022-11-09T06:21:45.812Z,13.01
2022-11-09T06:22:45.804Z,12.99
2022-11-09T06:23:45.773Z,12.98
2022-11-09T06:24:45.774Z,12.99
2022-11-09T06:25:45.746Z,12.98
2022-11-09T06:26:45.731Z,12.98
2022-11-09T06:27:45.715Z,12.95
2022-11-09T06:28:45.725Z,12.95
2022-11-09T06:29:45.942Z,12.98
2022-11-09T06:30:45.668Z,12.95
2022-11-09T06:31:45.685Z,12.92
2022-11-09T06:32:45.655Z,12.94
2022-11-09T06:33:45.640Z,12.92
2022-11-09T06:34:45.624Z,12.92
2022-11-09T06:35:45.664Z,12.91
2022-11-09T06:36:45.600Z,12.89
2022-11-09T06:37:45.577Z,12.88
2022-11-09T06:38:45.570Z,12.88
2022-11-09T06:39:45.579Z,12.85
2022-11-09T06:40:45.552Z,12.84
2022-11-09T06:41:47.575Z,12.84
2022-11-09T06:42:45.604Z,12.81
2022-11-09T06:43:45.519Z,12.79
2022-11-09T06:44:45.501Z,12.80
2022-11-09T06:45:45.491Z,12.80
2022-11-09T06:46:45.459Z,12.80
2022-11-09T06:47:45.495Z,12.81
2022-11-09T06:48:48.316Z,12.84
2022-11-09T06:49:46.442Z,12.85
2022-11-09T06:50:45.408Z,12.85
2022-11-09T06:51:45.427Z,12.87
2022-11-09T06:52:45.411Z,12.85
2022-11-09T06:53:45.411Z,12.87
2022-11-09T06:54:45.401Z,12.88
2022-11-09T06:55:50.238Z,12.88
2022-11-09T06:56:46.362Z,12.88
2022-11-09T06:57:45.320Z,12.87
2022-11-09T06:58:45.382Z,12.87
2022-11-09T06:59:45.312Z,12.85
2022-11-09T07:00:45.309Z,12.84
2022-11-09T07:01:45.336Z,12.84
2022-11-09T07:02:45.259Z,12.81
2022-11-09T07:03:45.257Z,12.80
2022-11-09T07:04:45.237Z,12.84
2022-11-09T07:05:45.239Z,12.87
2022-11-09T07:06:45.488Z,12.87
2022-11-09T07:07:45.205Z,12.87
2022-11-09T07:08:45.197Z,12.87
2022-11-09T07:09:45.200Z,12.88
2022-11-09T07:10:45.157Z,12.91
2022-11-09T07:11:45.149Z,12.89
2022-11-09T07:12:45.125Z,12.91
2022-11-09T07:13:46.688Z,12.91
2022-11-09T07:14:45.140Z,12.91
2022-11-09T07:15:45.084Z,12.91
2022-11-09T07:16:45.092Z,12.92
2022-11-09T07:17:45.086Z,12.92
2022-11-09T07:18:45.067Z,12.92
2022-11-09T07:19:45.053Z,12.95
2022-11-09T07:20:45.043Z,12.96
2022-11-09T07:21:45.019Z,12.96
2022-11-09T07:22:45.020Z,12.95
2022-11-09T07:23:44.976Z,12.94
2022-11-09T07:24:44.985Z,12.95
2022-11-09T07:25:44.970Z,12.95
2022-11-09T07:26:44.942Z,12.96
2022-11-09T07:27:44.937Z,12.96
2022-11-09T07:28:44.924Z,12.96
2022-11-09T07:29:44.938Z,12.96
2022-11-09T07:30:44.894Z,12.95
2022-11-09T07:31:44.898Z,12.96
2022-11-09T07:33:45.856Z,12.92
2022-11-09T07:34:44.855Z,12.92
2022-11-09T07:35:44.834Z,12.92
2022-11-09T07:36:44.834Z,12.94
2022-11-09T07:37:44.817Z,12.94
2022-11-09T07:38:44.806Z,12.94
2022-11-09T07:39:44.808Z,12.92
2022-11-09T07:40:44.784Z,12.94
2022-11-09T07:41:44.773Z,12.96
2022-11-09T07:42:44.742Z,12.96
2022-11-09T07:43:44.732Z,12.95
2022-11-09T07:44:44.740Z,12.95
2022-11-09T07:45:44.692Z,12.95
2022-11-09T07:46:44.698Z,12.92
2022-11-09T07:47:44.716Z,12.92
2022-11-09T07:48:52.492Z,12.91
2022-11-09T07:49:44.660Z,12.91
2022-11-09T07:50:44.660Z,12.88
2022-11-09T07:51:44.625Z,12.88
2022-11-09T07:52:44.619Z,12.87
2022-11-09T07:53:44.619Z,12.87
2022-11-09T07:54:48.247Z,12.85
2022-11-09T07:55:45.602Z,12.84
2022-11-09T07:56:44.580Z,12.84
2022-11-09T07:57:44.572Z,12.84
2022-11-09T07:58:44.547Z,12.81
2022-11-09T07:59:44.543Z,12.84
2022-11-09T08:00:44.550Z,12.85
2022-11-09T08:01:44.527Z,12.84
2022-11-09T08:02:44.506Z,12.81
2022-11-09T08:03:44.483Z,12.81
2022-11-09T08:04:44.455Z,12.80
2022-11-09T08:05:44.465Z,12.81
2022-11-09T08:06:44.512Z,12.80
2022-11-09T08:07:44.430Z,12.81
2022-11-09T08:08:44.413Z,12.81
2022-11-09T08:09:44.398Z,12.81
2022-11-09T08:10:48.263Z,12.81
2022-11-09T08:11:44.378Z,12.84
2022-11-09T08:12:44.385Z,12.84
2022-11-09T08:13:44.342Z,12.85
2022-11-09T08:14:44.356Z,12.87
2022-11-09T08:15:44.340Z,12.87
2022-11-09T08:16:44.315Z,12.89
2022-11-09T08:17:44.316Z,12.89
2022-11-09T08:18:44.304Z,12.89
2022-11-09T08:19:44.274Z,12.91
2022-11-09T08:20:44.262Z,12.92
2022-11-09T08:21:44.233Z,12.94
2022-11-09T08:22:44.249Z,12.94
2022-11-09T08:23:44.231Z,12.96
2022-11-09T08:24:44.222Z,12.98
2022-11-09T08:25:44.223Z,13.01
2022-11-09T08:26:44.182Z,13.03
2022-11-09T08:27:44.173Z,13.06
2022-11-09T08:28:44.188Z,13.06
2022-11-09T08:29:44.143Z,13.06
2022-11-09T08:30:44.164Z,13.09
2022-11-09T08:31:44.122Z,13.10
2022-11-09T08:32:44.112Z,13.12
2022-11-09T08:33:44.114Z,13.13
2022-11-09T08:34:44.090Z,13.14
2022-11-09T08:35:46.916Z,13.17
2022-11-09T08:36:45.046Z,13.17
2022-11-09T08:37:44.042Z,13.21
2022-11-09T08:38:44.052Z,13.22
2022-11-09T08:39:44.008Z,13.21
2022-11-09T08:40:44.037Z,13.22
2022-11-09T08:41:43.982Z,13.24
2022-11-09T08:42:43.992Z,13.25
2022-11-09T08:43:43.952Z,13.27
2022-11-09T08:44:43.960Z,13.28
2022-11-09T08:45:43.948Z,13.31
2022-11-09T08:46:43.938Z,13.32
2022-11-09T08:47:43.919Z,13.35
2022-11-09T08:48:43.908Z,13.38
2022-11-09T08:49:43.887Z,13.39
2022-11-09T08:50:43.889Z,13.43
2022-11-09T08:51:43.848Z,13.43
2022-11-09T08:52:43.860Z,13.43
2022-11-09T08:53:43.848Z,13.44
2022-11-09T08:54:43.810Z,13.47
2022-11-09T08:55:48.388Z,13.48
2022-11-09T08:56:44.803Z,13.50
2022-11-09T08:57:43.776Z,13.51
2022-11-09T08:58:43.780Z,13.53
2022-11-09T08:59:43.767Z,13.54
2022-11-09T09:00:43.767Z,13.53
2022-11-09T09:01:44.686Z,13.54
2022-11-09T09:02:43.732Z,13.55
2022-11-09T09:03:43.722Z,13.57
2022-11-09T09:04:43.687Z,13.57
2022-11-09T09:05:43.686Z,13.61
2022-11-09T09:06:43.899Z,13.63
2022-11-09T09:07:43.665Z,13.68
2022-11-09T09:08:45.541Z,13.69
2022-11-09T09:09:43.637Z,13.68
2022-11-09T09:10:43.641Z,13.71
2022-11-09T09:11:43.594Z,13.72
2022-11-09T09:12:43.617Z,13.75
2022-11-09T09:13:43.917Z,13.79
2022-11-09T09:14:43.568Z,13.80
2022-11-09T09:15:43.545Z,13.81
2022-11-09T09:16:43.531Z,13.84
2022-11-09T09:17:43.571Z,13.86
2022-11-09T09:18:43.506Z,13.86
2022-11-09T09:19:48.772Z,13.87
2022-11-09T09:20:44.493Z,13.88
2022-11-09T09:21:43.486Z,13.88
2022-11-09T09:22:43.480Z,13.87
2022-11-09T09:23:43.457Z,13.84
2022-11-09T09:24:43.438Z,13.83
2022-11-09T09:25:43.414Z,13.83
2022-11-09T09:26:43.416Z,13.86
2022-11-09T09:27:43.429Z,13.88
2022-11-09T09:28:43.401Z,13.91
2022-11-09T09:29:43.386Z,13.93
2022-11-09T09:30:43.364Z,13.96
2022-11-09T09:31:43.358Z,13.96
2022-11-09T09:32:43.323Z,13.99
2022-11-09T09:33:43.349Z,13.99
2022-11-09T09:34:43.302Z,14.01
2022-11-09T09:35:43.281Z,14.01
2022-11-09T09:36:47.717Z,14.02
2022-11-09T09:37:44.278Z,14.04
2022-11-09T09:38:43.251Z,14.02
2022-11-09T09:39:43.269Z,14.01
2022-11-09T09:40:43.246Z,13.99
2022-11-09T09:41:43.229Z,13.99
2022-11-09T09:42:43.220Z,13.99
2022-11-09T09:43:43.942Z,14.01
2022-11-09T09:44:43.198Z,14.02
2022-11-09T09:45:43.172Z,14.01
2022-11-09T09:46:43.177Z,14.01
2022-11-09T09:47:43.157Z,14.02
2022-11-09T09:48:43.133Z,14.04
2022-11-09T09:49:43.161Z,14.02
2022-11-09T09:50:43.127Z,14.04
2022-11-09T09:51:43.102Z,14.04
2022-11-09T09:52:50.661Z,14.05
2022-11-09T09:53:44.060Z,14.08
2022-11-09T09:54:43.045Z,14.08
2022-11-09T09:55:43.063Z,14.08
2022-11-09T09:56:43.013Z,14.06
2022-11-09T09:57:43.025Z,14.06
2022-11-09T09:58:43.007Z,14.06
2022-11-09T09:59:43.017Z,14.06
2022-11-09T10:00:42.990Z,14.04
2022-11-09T10:01:42.958Z,14.05
2022-11-09T10:02:42.986Z,14.04
2022-11-09T10:03:42.927Z,14.04
2022-11-09T10:04:42.964Z,14.04
2022-11-09T10:05:42.928Z,14.04
2022-11-09T10:06:42.963Z,14.02
2022-11-09T10:07:42.892Z,14.02
2022-11-09T10:08:42.858Z,14.06
2022-11-09T10:09:42.866Z,14.04
2022-11-09T10:10:42.852Z,14.05
2022-11-09T10:11:42.851Z,14.08
2022-11-09T10:12:42.846Z,14.06
2022-11-09T10:13:42.831Z,14.08
2022-11-09T10:14:42.793Z,14.08
2022-11-09T10:15:43.531Z,14.08
2022-11-09T10:16:42.774Z,14.08
2022-11-09T10:17:42.747Z,14.09
2022-11-09T10:18:42.835Z,14.12
2022-11-09T10:19:42.801Z,14.16
2022-11-09T10:20:42.706Z,14.16
2022-11-09T10:21:42.736Z,14.17
2022-11-09T10:22:42.690Z,14.16
2022-11-09T10:23:42.711Z,14.17
2022-11-09T10:24:58.662Z,14.20
2022-11-09T10:26:03.189Z,14.17
2022-11-09T10:26:43.712Z,14.16
2022-11-09T10:27:42.640Z,14.21
2022-11-09T10:29:09.669Z,14.27
2022-11-09T10:29:43.631Z,14.29
2022-11-09T10:30:42.887Z,14.31
2022-11-09T10:31:42.581Z,14.34
2022-11-09T10:32:42.612Z,14.35
2022-11-09T10:33:42.590Z,14.36
2022-11-09T10:34:42.535Z,14.38
2022-11-09T10:35:42.549Z,14.36
2022-11-09T10:36:42.822Z,14.38
2022-11-09T10:37:42.515Z,14.39
2022-11-09T10:38:42.485Z,14.39
2022-11-09T10:39:42.483Z,14.39
2022-11-09T10:40:42.469Z,14.39
2022-11-09T10:41:42.471Z,14.41
2022-11-09T10:42:42.467Z,14.41
2022-11-09T10:43:42.431Z,14.41
2022-11-09T10:44:42.410Z,14.41
2022-11-09T10:45:42.414Z,14.42
2022-11-09T10:46:42.436Z,14.44
2022-11-09T10:47:42.382Z,14.42
2022-11-09T10:48:42.403Z,14.42
2022-11-09T10:49:42.348Z,14.42
2022-11-09T10:50:42.336Z,14.42
2022-11-09T10:51:42.319Z,14.44
2022-11-09T10:52:47.280Z,14.46
2022-11-09T10:53:43.342Z,14.49
2022-11-09T10:54:42.308Z,14.53
2022-11-09T10:55:42.262Z,14.53
2022-11-09T10:57:05.069Z,14.54
2022-11-09T10:57:43.463Z,14.59
2022-11-09T10:58:42.276Z,14.59
2022-11-09T10:59:42.475Z,14.59
2022-11-09T11:00:42.207Z,14.59
2022-11-09T11:01:42.286Z,14.60
2022-11-09T11:02:42.200Z,14.60
2022-11-09T11:03:42.293Z,14.59
2022-11-09T11:04:42.175Z,14.56
2022-11-09T11:05:42.133Z,14.57
2022-11-09T11:06:42.187Z,14.57
2022-11-09T11:07:42.150Z,14.59
2022-11-09T11:08:42.107Z,14.63
2022-11-09T11:09:42.092Z,14.64
2022-11-09T11:10:42.076Z,14.71
2022-11-09T11:11:42.055Z,14.72
2022-11-09T11:12:42.042Z,14.71
2022-11-09T11:13:42.051Z,14.75
2022-11-09T11:14:42.022Z,14.78
2022-11-09T11:15:42.036Z,14.80
2022-11-09T11:16:42.006Z,14.80
2022-11-09T11:17:42.007Z,14.79
2022-11-09T11:18:41.952Z,14.80
2022-11-09T11:19:41.974Z,14.86
2022-11-09T11:20:41.949Z,14.86
2022-11-09T11:21:41.945Z,14.90
2022-11-09T11:22:41.902Z,14.97
2022-11-09T11:23:41.912Z,14.98
2022-11-09T11:24:41.892Z,14.98
2022-11-09T11:25:41.894Z,14.97
2022-11-09T11:26:41.900Z,14.95
2022-11-09T11:27:41.859Z,14.95
2022-11-09T11:28:41.844Z,14.97
2022-11-09T11:29:41.833Z,14.95
2022-11-09T11:30:41.846Z,14.93
2022-11-09T11:31:41.796Z,14.94
2022-11-09T11:32:47.103Z,14.94
2022-11-09T11:33:42.767Z,14.91
2022-11-09T11:34:59.048Z,14.90
2022-11-09T11:35:42.758Z,14.91
2022-11-09T11:36:41.736Z,14.94
2022-11-09T11:37:41.717Z,14.97
2022-11-09T11:38:41.712Z,15.00
2022-11-09T11:39:41.723Z,15.00
2022-11-09T11:40:41.706Z,15.00
2022-11-09T11:41:41.675Z,15.00
2022-11-09T11:42:41.734Z,14.98
2022-11-09T11:43:41.653Z,14.98
2022-11-09T11:44:41.634Z,14.98
2022-11-09T11:45:42.388Z,14.98
2022-11-09T11:46:41.662Z,14.98
2022-11-09T11:47:41.602Z,14.98
2022-11-09T11:48:41.621Z,14.97
2022-11-09T11:49:41.612Z,14.98
2022-11-09T11:50:41.547Z,14.98
2022-11-09T11:51:41.583Z,14.97
2022-11-09T11:52:41.518Z,14.95
2022-11-09T11:53:43.575Z,14.93
2022-11-09T11:54:41.514Z,14.95
2022-11-09T11:55:41.505Z,14.95
2022-11-09T11:56:41.504Z,14.94
2022-11-09T11:57:41.471Z,14.93
2022-11-09T11:58:41.447Z,14.91
2022-11-09T11:59:41.442Z,14.93
2022-11-09T12:00:41.435Z,14.93
2022-11-09T12:01:41.408Z,14.90
2022-11-09T12:02:41.486Z,14.91
2022-11-09T12:03:41.441Z,14.93
2022-11-09T12:04:41.371Z,14.91
2022-11-09T12:05:41.370Z,14.90
2022-11-09T12:06:44.118Z,14.90
2022-11-09T12:07:41.368Z,14.91
2022-11-09T12:08:41.364Z,14.94
2022-11-09T12:09:41.328Z,15.00
2022-11-09T12:10:41.301Z,15.05
2022-11-09T12:11:41.300Z,15.11
2022-11-09T12:12:41.279Z,15.13
2022-11-09T12:13:45.714Z,15.18
2022-11-09T12:14:42.274Z,15.18
2022-11-09T12:15:41.234Z,15.16
2022-11-09T12:16:41.226Z,15.15
2022-11-09T12:17:41.228Z,15.16
2022-11-09T12:18:41.236Z,15.15
2022-11-09T12:19:41.179Z,15.16
2022-11-09T12:20:41.191Z,15.16
2022-11-09T12:21:41.166Z,15.16
2022-11-09T12:22:41.161Z,15.16
2022-11-09T12:23:41.142Z,15.15
2022-11-09T12:24:41.252Z,15.09
2022-11-09T12:25:41.097Z,15.03
2022-11-09T12:26:41.110Z,15.03
2022-11-09T12:27:41.068Z,14.98
2022-11-09T12:28:41.076Z,14.97
2022-11-09T12:29:41.127Z,14.94
2022-11-09T12:30:41.114Z,14.95
2022-11-09T12:31:41.028Z,14.94
2022-11-09T12:32:41.017Z,14.93
2022-11-09T12:33:43.398Z,14.94
2022-11-09T12:34:40.999Z,14.94
2022-11-09T12:35:41.066Z,14.94
2022-11-09T12:36:40.967Z,14.93
2022-11-09T12:37:40.969Z,14.94
2022-11-09T12:38:40.933Z,14.93
2022-11-09T12:39:40.915Z,14.93
2022-11-09T12:40:40.916Z,14.94
2022-11-09T12:41:40.893Z,14.91
2022-11-09T12:42:40.873Z,14.91
2022-11-09T12:43:40.897Z,14.91
2022-11-09T12:44:40.844Z,14.87
2022-11-09T12:45:40.833Z,14.90
2022-11-09T12:46:40.836Z,14.91
2022-11-09T12:47:40.815Z,14.91
2022-11-09T12:48:40.815Z,14.90
2022-11-09T12:49:40.783Z,14.93
2022-11-09T12:50:40.801Z,14.91
2022-11-09T12:51:40.768Z,14.91
2022-11-09T12:52:40.770Z,14.87
2022-11-09T12:53:40.753Z,14.91